createdAt,value
2018-07-20T00:00:33.890Z,21.27
2018-07-20T00:01:33.538Z,21.29
2018-07-20T00:02:33.518Z,21.24
2018-07-20T00:03:33.512Z,21.29
2018-07-20T00:04:33.540Z,21.29
2018-07-20T00:05:33.505Z,21.38
2018-07-20T00:06:33.520Z,21.27
2018-07-20T00:07:33.498Z,21.24
2018-07-20T00:08:33.490Z,21.24
2018-07-20T00:09:33.479Z,21.16
2018-07-20T00:10:33.473Z,21.14
2018-07-20T00:11:33.517Z,21.13
2018-07-20T00:12:33.464Z,21.10
2018-07-20T00:13:33.449Z,21.09
2018-07-20T00:14:33.457Z,21.14
2018-07-20T00:15:33.435Z,21.14
2018-07-20T00:16:33.485Z,21.09
2018-07-20T00:17:33.427Z,21.12
2018-07-20T00:18:33.415Z,21.06
2018-07-20T00:19:33.412Z,21.10
2018-07-20T00:20:33.418Z,21.03
2018-07-20T00:21:33.405Z,20.97
2018-07-20T00:22:33.417Z,20.99
2018-07-20T00:23:33.386Z,20.88
2018-07-20T00:24:33.374Z,20.94
2018-07-20T00:25:33.369Z,20.94
2018-07-20T00:26:33.368Z,20.84
2018-07-20T00:27:33.397Z,20.80
2018-07-20T00:28:33.349Z,20.73
2018-07-20T00:29:33.347Z,20.72
2018-07-20T00:30:33.328Z,20.69
2018-07-20T00:31:33.325Z,20.67
2018-07-20T00:32:33.356Z,20.62
2018-07-20T00:33:33.312Z,20.62
2018-07-20T00:34:33.312Z,20.62
2018-07-20T00:35:33.291Z,20.62
2018-07-20T00:36:33.300Z,20.58
2018-07-20T00:37:33.337Z,20.57
2018-07-20T00:38:33.355Z,20.47
2018-07-20T00:39:33.271Z,20.51
2018-07-20T00:40:33.269Z,20.43
2018-07-20T00:41:33.253Z,20.38
2018-07-20T00:42:33.255Z,20.31
2018-07-20T00:43:33.243Z,20.31
2018-07-20T00:44:33.247Z,20.14
2018-07-20T00:45:33.260Z,20.28
2018-07-20T00:46:33.242Z,20.18
2018-07-20T00:47:33.235Z,20.31
2018-07-20T00:48:33.199Z,20.20
2018-07-20T00:49:33.219Z,20.11
2018-07-20T00:50:33.190Z,20.17
2018-07-20T00:51:33.196Z,20.13
2018-07-20T00:52:33.195Z,20.08
2018-07-20T00:53:33.179Z,20.03
2018-07-20T00:54:33.195Z,20.13
2018-07-20T00:55:33.163Z,20.18
2018-07-20T00:56:33.151Z,20.11
2018-07-20T00:57:33.147Z,20.17
2018-07-20T00:58:33.133Z,20.05
2018-07-20T00:59:33.149Z,20.02
2018-07-20T01:00:33.113Z,20.03
2018-07-20T01:01:33.112Z,19.98
2018-07-20T01:02:33.103Z,20.02
2018-07-20T01:03:33.139Z,20.01
2018-07-20T01:04:33.091Z,20.03
2018-07-20T01:05:33.246Z,20.02
2018-07-20T01:06:33.075Z,20.01
2018-07-20T01:07:33.078Z,19.91
2018-07-20T01:08:33.052Z,19.96
2018-07-20T01:09:33.124Z,19.98
2018-07-20T01:10:33.038Z,19.88
2018-07-20T01:11:33.030Z,19.94
2018-07-20T01:12:33.036Z,19.95
2018-07-20T01:13:33.026Z,19.91
2018-07-20T01:14:33.014Z,19.84
2018-07-20T01:15:33.074Z,20.01
2018-07-20T01:16:33.018Z,19.91
2018-07-20T01:17:32.994Z,19.94
2018-07-20T01:18:32.985Z,19.91
2018-07-20T01:19:32.985Z,19.88
2018-07-20T01:20:32.961Z,19.92
2018-07-20T01:21:32.982Z,20.02
2018-07-20T01:22:32.956Z,19.91
2018-07-20T01:23:32.938Z,19.99
2018-07-20T01:24:32.971Z,19.91
2018-07-20T01:25:32.927Z,20.01
2018-07-20T01:26:32.920Z,20.06
2018-07-20T01:27:32.915Z,20.05
2018-07-20T01:28:32.975Z,20.08
2018-07-20T01:29:32.947Z,20.02
2018-07-20T01:30:32.890Z,20.08
2018-07-20T01:31:32.893Z,20.03
2018-07-20T01:32:32.896Z,20.05
2018-07-20T01:33:32.873Z,20.10
2018-07-20T01:34:32.900Z,20.05
2018-07-20T01:35:32.909Z,19.99
2018-07-20T01:36:32.849Z,20.02
2018-07-20T01:37:32.853Z,20.03
2018-07-20T01:38:32.833Z,20.06
2018-07-20T01:39:32.822Z,20.05
2018-07-20T01:40:32.816Z,20.02
2018-07-20T01:41:32.828Z,20.06
2018-07-20T01:42:32.803Z,19.94
2018-07-20T01:43:32.792Z,20.06
2018-07-20T01:44:32.787Z,20.02
2018-07-20T01:45:32.850Z,20.02
2018-07-20T01:46:32.762Z,20.01
2018-07-20T01:47:32.769Z,20.01
2018-07-20T01:48:32.778Z,20.01
2018-07-20T01:49:32.741Z,19.99
2018-07-20T01:50:32.750Z,19.99
2018-07-20T01:51:32.756Z,20.06
2018-07-20T01:52:32.746Z,20.03
2018-07-20T01:53:32.714Z,20.02
2018-07-20T01:54:32.722Z,20.01
2018-07-20T01:55:32.711Z,20.02
2018-07-20T01:56:33.058Z,20.01
2018-07-20T01:57:32.683Z,20.03
2018-07-20T01:58:32.689Z,20.03
2018-07-20T01:59:32.676Z,20.01
2018-07-20T02:00:32.666Z,19.96
2018-07-20T02:01:32.673Z,20.02
2018-07-20T02:02:32.686Z,20.02
2018-07-20T02:03:32.644Z,19.99
2018-07-20T02:04:32.631Z,19.99
2018-07-20T02:05:32.628Z,20.06
2018-07-20T02:06:32.620Z,20.02
2018-07-20T02:07:32.639Z,20.03
2018-07-20T02:08:32.611Z,19.95
2018-07-20T02:09:32.660Z,19.94
2018-07-20T02:10:32.601Z,20.05
2018-07-20T02:11:32.604Z,20.08
2018-07-20T02:12:32.579Z,20.03
2018-07-20T02:13:32.568Z,19.99
2018-07-20T02:14:32.562Z,19.92
2018-07-20T02:15:32.590Z,19.99
2018-07-20T02:16:32.545Z,19.87
2018-07-20T02:17:32.536Z,20.02
2018-07-20T02:18:32.548Z,19.91
2018-07-20T02:19:32.561Z,19.87
2018-07-20T02:20:32.515Z,19.84
2018-07-20T02:21:32.540Z,19.94
2018-07-20T02:22:32.506Z,19.91
2018-07-20T02:23:32.491Z,19.95
2018-07-20T02:24:32.547Z,19.87
2018-07-20T02:25:32.479Z,19.87
2018-07-20T02:26:32.470Z,19.92
2018-07-20T02:27:32.468Z,19.94
2018-07-20T02:28:32.454Z,19.91
2018-07-20T02:29:32.837Z,19.91
2018-07-20T02:30:32.438Z,19.84
2018-07-20T02:31:32.436Z,19.84
2018-07-20T02:32:32.427Z,19.76
2018-07-20T02:33:32.424Z,19.77
2018-07-20T02:34:32.421Z,19.83
2018-07-20T02:35:32.426Z,19.77
2018-07-20T02:36:32.400Z,19.68
2018-07-20T02:37:32.392Z,19.66
2018-07-20T02:38:32.386Z,19.65
2018-07-20T02:39:32.368Z,19.65
2018-07-20T02:40:32.367Z,19.58
2018-07-20T02:41:32.367Z,19.56
2018-07-20T02:42:32.358Z,19.58
2018-07-20T02:43:32.348Z,19.71
2018-07-20T02:44:32.336Z,19.61
2018-07-20T02:45:32.335Z,19.59
2018-07-20T02:46:32.348Z,19.62
2018-07-20T02:47:32.312Z,19.62
2018-07-20T02:48:32.298Z,19.59
2018-07-20T02:49:32.298Z,19.62
2018-07-20T02:50:32.299Z,19.61
2018-07-20T02:51:32.282Z,19.56
2018-07-20T02:52:32.322Z,19.55
2018-07-20T02:53:32.269Z,19.63
2018-07-20T02:54:32.265Z,19.69
2018-07-20T02:55:32.245Z,19.48
2018-07-20T02:56:32.237Z,19.59
2018-07-20T02:57:32.265Z,19.51
2018-07-20T02:58:32.218Z,19.43
2018-07-20T02:59:32.214Z,19.44
2018-07-20T03:00:32.208Z,19.47
2018-07-20T03:01:32.208Z,19.50
2018-07-20T03:02:32.189Z,19.48
2018-07-20T03:03:32.184Z,19.44
2018-07-20T03:04:32.178Z,19.46
2018-07-20T03:05:32.189Z,19.36
2018-07-20T03:06:32.163Z,19.43
2018-07-20T03:07:32.156Z,19.37
2018-07-20T03:08:32.155Z,19.37
2018-07-20T03:09:32.138Z,19.47
2018-07-20T03:10:32.128Z,19.44
2018-07-20T03:11:32.111Z,19.43
2018-07-20T03:12:32.127Z,19.58
2018-07-20T03:13:32.161Z,19.55
2018-07-20T03:14:32.094Z,19.56
2018-07-20T03:15:32.091Z,19.58
2018-07-20T03:16:32.080Z,19.68
2018-07-20T03:17:32.080Z,19.62
2018-07-20T03:18:32.064Z,19.62
2018-07-20T03:19:32.106Z,19.58
2018-07-20T03:20:32.080Z,19.44
2018-07-20T03:21:32.056Z,19.40
2018-07-20T03:22:32.047Z,19.25
2018-07-20T03:23:32.043Z,19.18
2018-07-20T03:24:32.059Z,19.19
2018-07-20T03:25:32.007Z,19.04
2018-07-20T03:26:32.007Z,19.06
2018-07-20T03:27:31.985Z,18.95
2018-07-20T03:28:31.989Z,18.95
2018-07-20T03:29:31.988Z,19.08
2018-07-20T03:30:31.976Z,19.13
2018-07-20T03:31:31.975Z,18.92
2018-07-20T03:32:31.963Z,18.94
2018-07-20T03:33:31.950Z,18.91
2018-07-20T03:34:31.936Z,18.95
2018-07-20T03:35:31.960Z,18.90
2018-07-20T03:36:31.927Z,18.98
2018-07-20T03:37:31.917Z,18.94
2018-07-20T03:38:31.909Z,18.92
2018-07-20T03:39:31.898Z,18.94
2018-07-20T03:40:31.893Z,18.90
2018-07-20T03:41:31.895Z,18.88
2018-07-20T03:42:31.882Z,18.76
2018-07-20T03:43:31.872Z,18.70
2018-07-20T03:44:31.852Z,18.73
2018-07-20T03:45:31.872Z,18.70
2018-07-20T03:46:31.849Z,18.72
2018-07-20T03:47:31.832Z,18.65
2018-07-20T03:48:31.827Z,18.65
2018-07-20T03:49:31.820Z,18.70
2018-07-20T03:50:31.850Z,18.72
2018-07-20T03:51:31.808Z,18.72
2018-07-20T03:52:31.805Z,18.73
2018-07-20T03:53:31.784Z,18.66
2018-07-20T03:54:31.768Z,18.65
2018-07-20T03:55:31.805Z,18.67
2018-07-20T03:56:31.767Z,18.70
2018-07-20T03:57:31.749Z,18.70
2018-07-20T03:58:31.760Z,18.67
2018-07-20T03:59:32.870Z,18.76
2018-07-20T04:00:31.721Z,18.78
2018-07-20T04:01:31.709Z,18.80
2018-07-20T04:02:31.726Z,18.82
2018-07-20T04:03:31.704Z,18.81
2018-07-20T04:04:31.731Z,18.85
2018-07-20T04:05:31.689Z,18.92
2018-07-20T04:06:31.685Z,19.06
2018-07-20T04:07:31.673Z,19.13
2018-07-20T04:08:31.659Z,19.08
2018-07-20T04:09:31.680Z,19.00
2018-07-20T04:10:31.640Z,19.10
2018-07-20T04:11:31.633Z,19.04
2018-07-20T04:12:31.634Z,19.08
2018-07-20T04:13:31.616Z,19.08
2018-07-20T04:14:31.631Z,19.07
2018-07-20T04:15:31.608Z,19.18
2018-07-20T04:16:31.601Z,19.29
2018-07-20T04:17:31.589Z,19.21
2018-07-20T04:18:31.588Z,19.29
2018-07-20T04:19:31.623Z,19.22
2018-07-20T04:20:31.559Z,19.28
2018-07-20T04:21:31.561Z,19.28
2018-07-20T04:22:31.544Z,19.40
2018-07-20T04:23:31.541Z,19.39
2018-07-20T04:24:31.557Z,19.37
2018-07-20T04:25:31.533Z,19.48
2018-07-20T04:26:31.513Z,19.41
2018-07-20T04:27:31.501Z,19.40
2018-07-20T04:28:31.521Z,19.47
2018-07-20T04:29:32.739Z,19.46
2018-07-20T04:30:31.478Z,19.41
2018-07-20T04:31:31.481Z,19.48
2018-07-20T04:32:31.455Z,19.47
2018-07-20T04:33:31.483Z,19.47
2018-07-20T04:34:31.446Z,19.46
2018-07-20T04:35:31.441Z,19.55
2018-07-20T04:36:31.511Z,19.48
2018-07-20T04:37:31.423Z,19.48
2018-07-20T04:38:31.480Z,19.46
2018-07-20T04:39:31.397Z,19.55
2018-07-20T04:40:31.402Z,19.50
2018-07-20T04:41:31.384Z,19.44
2018-07-20T04:42:31.388Z,19.56
2018-07-20T04:43:31.379Z,19.61
2018-07-20T04:44:31.400Z,19.62
2018-07-20T04:45:31.389Z,19.66
2018-07-20T04:46:31.362Z,19.56
2018-07-20T04:47:31.341Z,19.62
2018-07-20T04:48:31.347Z,19.62
2018-07-20T04:49:31.337Z,19.63
2018-07-20T04:50:31.353Z,19.62
2018-07-20T04:51:31.313Z,19.63
2018-07-20T04:52:31.313Z,19.55
2018-07-20T04:53:31.299Z,19.65
2018-07-20T04:54:31.291Z,19.66
2018-07-20T04:55:31.310Z,19.68
2018-07-20T04:56:31.273Z,19.68
2018-07-20T04:57:31.270Z,19.65
2018-07-20T04:58:31.261Z,19.71
2018-07-20T04:59:31.417Z,19.66
2018-07-20T05:00:31.304Z,19.74
2018-07-20T05:01:31.238Z,19.68
2018-07-20T05:02:31.234Z,19.68
2018-07-20T05:03:31.226Z,19.74
2018-07-20T05:04:31.220Z,19.56
2018-07-20T05:05:31.208Z,19.56
2018-07-20T05:06:31.224Z,19.63
2018-07-20T05:07:31.186Z,19.66
2018-07-20T05:08:31.250Z,19.68
2018-07-20T05:09:31.174Z,19.62
2018-07-20T05:10:31.168Z,19.59
2018-07-20T05:11:31.188Z,19.63
2018-07-20T05:12:31.152Z,19.69
2018-07-20T05:13:31.144Z,19.66
2018-07-20T05:14:31.142Z,19.65
2018-07-20T05:15:31.126Z,19.62
2018-07-20T05:16:31.129Z,19.65
2018-07-20T05:17:31.107Z,19.62
2018-07-20T05:18:31.138Z,19.62
2018-07-20T05:19:31.092Z,19.68
2018-07-20T05:20:31.084Z,19.68
2018-07-20T05:21:31.079Z,19.69
2018-07-20T05:22:31.075Z,19.71
2018-07-20T05:23:31.118Z,19.76
2018-07-20T05:24:31.056Z,19.73
2018-07-20T05:25:31.053Z,19.73
2018-07-20T05:26:31.046Z,19.74
2018-07-20T05:27:31.031Z,19.71
2018-07-20T05:28:31.019Z,19.83
2018-07-20T05:29:31.377Z,19.78
2018-07-20T05:30:31.013Z,19.80
2018-07-20T05:31:31.021Z,19.76
2018-07-20T05:32:31.005Z,19.81
2018-07-20T05:33:30.998Z,19.74
2018-07-20T05:34:31.012Z,19.87
2018-07-20T05:35:30.967Z,19.80
2018-07-20T05:36:30.955Z,19.84
2018-07-20T05:37:30.966Z,19.80
2018-07-20T05:38:31.007Z,19.95
2018-07-20T05:39:30.946Z,19.92
2018-07-20T05:40:30.948Z,19.96
2018-07-20T05:41:30.933Z,19.94
2018-07-20T05:42:30.928Z,19.95
2018-07-20T05:43:30.906Z,19.91
2018-07-20T05:44:30.924Z,20.01
2018-07-20T05:45:30.894Z,19.98
2018-07-20T05:46:30.917Z,20.02
2018-07-20T05:47:30.887Z,19.98
2018-07-20T05:48:30.876Z,20.01
2018-07-20T05:49:30.902Z,20.08
2018-07-20T05:50:30.890Z,20.02
2018-07-20T05:51:30.844Z,19.96
2018-07-20T05:52:30.849Z,20.02
2018-07-20T05:53:30.883Z,20.10
2018-07-20T05:54:30.852Z,20.13
2018-07-20T05:55:30.862Z,20.06
2018-07-20T05:56:30.827Z,20.16
2018-07-20T05:57:30.811Z,20.18
2018-07-20T05:58:30.815Z,20.24
2018-07-20T05:59:30.856Z,20.11
2018-07-20T06:00:30.793Z,20.35
2018-07-20T06:01:30.780Z,20.26
2018-07-20T06:02:30.770Z,20.31
2018-07-20T06:03:30.761Z,20.24
2018-07-20T06:04:30.757Z,20.32
2018-07-20T06:05:30.824Z,20.32
2018-07-20T06:06:30.739Z,20.33
2018-07-20T06:07:30.735Z,20.35
2018-07-20T06:08:30.729Z,20.32
2018-07-20T06:09:30.731Z,20.38
2018-07-20T06:10:30.712Z,20.28
2018-07-20T06:11:30.713Z,20.36
2018-07-20T06:12:30.687Z,20.33
2018-07-20T06:13:30.685Z,20.32
2018-07-20T06:14:30.684Z,20.32
2018-07-20T06:15:30.664Z,20.35
2018-07-20T06:16:31.031Z,20.33
2018-07-20T06:17:30.656Z,20.38
2018-07-20T06:18:30.657Z,20.38
2018-07-20T06:19:30.646Z,20.54
2018-07-20T06:20:30.638Z,20.55
2018-07-20T06:21:30.677Z,20.51
2018-07-20T06:22:30.664Z,20.58
2018-07-20T06:23:30.644Z,20.57
2018-07-20T06:24:30.642Z,20.64
2018-07-20T06:25:30.607Z,20.67
2018-07-20T06:26:30.592Z,20.76
2018-07-20T06:27:30.645Z,20.80
2018-07-20T06:28:30.589Z,20.80
2018-07-20T06:29:30.857Z,20.73
2018-07-20T06:30:30.581Z,20.85
2018-07-20T06:31:30.588Z,20.82
2018-07-20T06:32:30.561Z,20.77
2018-07-20T06:33:30.584Z,20.89
2018-07-20T06:34:30.540Z,20.92
2018-07-20T06:35:30.593Z,20.92
2018-07-20T06:36:30.532Z,20.84
2018-07-20T06:37:30.522Z,20.87
2018-07-20T06:38:30.508Z,20.80
2018-07-20T06:39:30.505Z,20.85
2018-07-20T06:40:30.501Z,20.91
2018-07-20T06:41:30.492Z,20.92
2018-07-20T06:42:30.487Z,20.97
2018-07-20T06:43:30.478Z,21.01
2018-07-20T06:44:30.473Z,20.95
2018-07-20T06:45:30.458Z,21.04
2018-07-20T06:46:30.516Z,21.04
2018-07-20T06:47:30.472Z,20.98
2018-07-20T06:48:30.447Z,20.98
2018-07-20T06:49:30.455Z,21.12
2018-07-20T06:50:30.444Z,21.12
2018-07-20T06:51:30.438Z,21.12
2018-07-20T06:52:30.461Z,21.04
2018-07-20T06:53:30.421Z,21.16
2018-07-20T06:54:30.413Z,21.17
2018-07-20T06:55:30.409Z,21.12
2018-07-20T06:56:30.394Z,21.22
2018-07-20T06:57:30.417Z,21.21
2018-07-20T06:58:30.391Z,21.16
2018-07-20T06:59:30.376Z,21.29
2018-07-20T07:00:30.367Z,21.27
2018-07-20T07:01:30.364Z,21.28
2018-07-20T07:02:30.380Z,21.34
2018-07-20T07:03:30.400Z,21.34
2018-07-20T07:04:30.335Z,21.44
2018-07-20T07:05:30.339Z,21.44
2018-07-20T07:06:30.327Z,21.49
2018-07-20T07:07:30.317Z,21.49
2018-07-20T07:08:30.316Z,21.53
2018-07-20T07:09:30.428Z,21.54
2018-07-20T07:10:30.304Z,21.50
2018-07-20T07:11:30.323Z,21.50
2018-07-20T07:12:30.281Z,21.50
2018-07-20T07:13:30.283Z,21.52
2018-07-20T07:14:30.311Z,21.52
2018-07-20T07:15:30.274Z,21.53
2018-07-20T07:16:30.271Z,21.50
2018-07-20T07:17:30.258Z,21.42
2018-07-20T07:18:30.247Z,21.54
2018-07-20T07:19:30.280Z,21.64
2018-07-20T07:20:30.271Z,21.67
2018-07-20T07:21:30.240Z,21.68
2018-07-20T07:22:30.531Z,21.64
2018-07-20T07:23:30.215Z,21.71
2018-07-20T07:24:30.232Z,21.71
2018-07-20T07:25:30.232Z,21.58
2018-07-20T07:26:30.190Z,21.59
2018-07-20T07:27:30.187Z,21.62
2018-07-20T07:28:30.234Z,21.62
2018-07-20T07:29:30.176Z,21.67
2018-07-20T07:30:30.198Z,21.71
2018-07-20T07:31:30.180Z,21.72
2018-07-20T07:32:30.180Z,21.75
2018-07-20T07:33:30.151Z,21.68
2018-07-20T07:34:30.154Z,21.74
2018-07-20T07:35:30.187Z,21.79
2018-07-20T07:36:30.139Z,21.84
2018-07-20T07:37:30.157Z,21.84
2018-07-20T07:38:30.131Z,21.96
2018-07-20T07:39:30.127Z,21.98
2018-07-20T07:40:30.132Z,21.92
2018-07-20T07:41:30.121Z,21.98
2018-07-20T07:42:30.136Z,22.10
2018-07-20T07:43:30.090Z,22.03
2018-07-20T07:44:30.112Z,22.05
2018-07-20T07:45:30.182Z,22.10
2018-07-20T07:46:30.081Z,22.15
2018-07-20T07:47:30.099Z,22.15
2018-07-20T07:48:30.068Z,22.17
2018-07-20T07:49:30.071Z,22.21
2018-07-20T07:50:30.124Z,22.20
2018-07-20T07:51:30.050Z,22.22
2018-07-20T07:52:30.039Z,22.28
2018-07-20T07:53:30.041Z,22.22
2018-07-20T07:54:30.035Z,22.28
2018-07-20T07:55:30.035Z,22.18
2018-07-20T07:56:30.063Z,22.18
2018-07-20T07:57:30.065Z,22.36
2018-07-20T07:58:30.020Z,22.37
2018-07-20T07:59:30.012Z,22.37
2018-07-20T08:00:30.002Z,22.42
2018-07-20T08:01:30.028Z,22.40
2018-07-20T08:02:29.987Z,22.37
2018-07-20T08:03:30.072Z,22.45
2018-07-20T08:04:29.995Z,22.52
2018-07-20T08:05:29.969Z,22.49
2018-07-20T08:06:29.978Z,22.58
2018-07-20T08:07:29.961Z,22.57
2018-07-20T08:08:29.967Z,22.61
2018-07-20T08:09:29.955Z,22.67
2018-07-20T08:10:29.961Z,22.65
2018-07-20T08:11:29.935Z,22.61
2018-07-20T08:12:29.932Z,22.68
2018-07-20T08:13:30.286Z,22.65
2018-07-20T08:14:29.912Z,22.61
2018-07-20T08:15:29.933Z,22.61
2018-07-20T08:16:29.911Z,22.76
2018-07-20T08:17:29.906Z,22.72
2018-07-20T08:18:29.966Z,22.73
2018-07-20T08:19:29.918Z,22.83
2018-07-20T08:20:29.893Z,22.82
2018-07-20T08:21:29.960Z,22.92
2018-07-20T08:22:29.903Z,22.90
2018-07-20T08:23:29.875Z,22.98
2018-07-20T08:24:29.869Z,23.00
2018-07-20T08:25:29.862Z,23.02
2018-07-20T08:26:29.868Z,23.01
2018-07-20T08:27:29.878Z,23.04
2018-07-20T08:28:29.861Z,23.01
2018-07-20T08:29:29.922Z,23.01
2018-07-20T08:30:29.852Z,23.16
2018-07-20T08:31:29.828Z,23.27
2018-07-20T08:32:29.824Z,23.22
2018-07-20T08:33:29.850Z,23.27
2018-07-20T08:34:29.816Z,23.22
2018-07-20T08:35:29.834Z,23.33
2018-07-20T08:36:29.814Z,23.25
2018-07-20T08:37:29.799Z,23.31
2018-07-20T08:38:29.805Z,23.39
2018-07-20T08:39:29.797Z,23.50
2018-07-20T08:40:29.824Z,23.65
2018-07-20T08:41:29.775Z,23.73
2018-07-20T08:42:29.802Z,23.84
2018-07-20T08:43:29.780Z,23.97
2018-07-20T08:44:29.776Z,23.97
2018-07-20T08:45:29.778Z,23.90
2018-07-20T08:46:29.829Z,23.91
2018-07-20T08:47:29.759Z,23.98
2018-07-20T08:48:29.745Z,23.98
2018-07-20T08:49:29.753Z,23.88
2018-07-20T08:50:29.812Z,23.93
2018-07-20T08:51:30.098Z,23.98
2018-07-20T08:52:30.059Z,24.03
2018-07-20T08:53:30.468Z,24.25
2018-07-20T08:54:29.728Z,24.58
2018-07-20T08:55:29.734Z,24.99
2018-07-20T08:56:29.731Z,25.30
2018-07-20T08:57:29.759Z,25.76
2018-07-20T08:58:29.706Z,26.10
2018-07-20T08:59:29.715Z,26.51
2018-07-20T09:00:29.705Z,26.84
2018-07-20T09:01:29.761Z,27.18
2018-07-20T09:02:29.711Z,27.44
2018-07-20T09:03:29.726Z,27.93
2018-07-20T09:04:29.701Z,28.12
2018-07-20T09:05:29.708Z,28.30
2018-07-20T09:06:29.746Z,28.55
2018-07-20T09:07:29.742Z,28.67
2018-07-20T09:08:29.738Z,28.81
2018-07-20T09:09:29.704Z,29.00
2018-07-20T09:10:29.711Z,29.02
2018-07-20T09:11:29.738Z,29.39
2018-07-20T09:12:29.716Z,29.60
2018-07-20T09:13:29.742Z,30.00
2018-07-20T09:14:29.710Z,30.20
2018-07-20T09:15:29.712Z,30.58
2018-07-20T09:16:29.718Z,30.89
2018-07-20T09:17:29.793Z,31.20
2018-07-20T09:18:29.709Z,31.50
2018-07-20T09:19:29.719Z,31.68
2018-07-20T09:20:29.774Z,31.76
2018-07-20T09:21:29.718Z,31.95
2018-07-20T09:22:29.726Z,31.96
2018-07-20T09:23:29.813Z,32.06
2018-07-20T09:24:29.742Z,32.14
2018-07-20T09:25:29.738Z,32.22
2018-07-20T09:26:29.757Z,32.28
2018-07-20T09:27:29.740Z,32.33
2018-07-20T09:28:29.754Z,32.40
2018-07-20T09:29:29.785Z,32.56
2018-07-20T09:30:29.762Z,32.65
2018-07-20T09:31:29.757Z,32.75
2018-07-20T09:32:29.764Z,32.85
2018-07-20T09:33:29.893Z,32.87
2018-07-20T09:34:30.072Z,32.96
2018-07-20T09:35:30.008Z,33.14
2018-07-20T09:36:29.986Z,33.32
2018-07-20T09:37:29.892Z,33.45
2018-07-20T09:38:29.892Z,33.26
2018-07-20T09:39:29.914Z,32.89
2018-07-20T09:40:30.018Z,32.69
2018-07-20T09:41:29.963Z,32.59
2018-07-20T09:42:29.967Z,32.47
2018-07-20T09:43:29.975Z,32.65
2018-07-20T09:44:29.942Z,32.84
2018-07-20T09:45:30.109Z,33.03
2018-07-20T09:46:30.189Z,32.97
2018-07-20T09:47:30.149Z,32.93
2018-07-20T09:48:30.045Z,32.92
2018-07-20T09:49:30.027Z,33.06
2018-07-20T09:50:29.929Z,33.21
2018-07-20T09:51:29.867Z,33.39
2018-07-20T09:52:29.872Z,33.66
2018-07-20T09:53:29.885Z,33.79
2018-07-20T09:54:29.892Z,34.03
2018-07-20T09:55:29.885Z,34.19
2018-07-20T09:56:29.891Z,34.46
2018-07-20T09:57:29.907Z,34.72
2018-07-20T09:58:29.924Z,34.69
2018-07-20T09:59:30.096Z,34.78
2018-07-20T10:00:29.950Z,34.80
2018-07-20T10:01:29.925Z,35.07
2018-07-20T10:02:29.945Z,35.26
2018-07-20T10:03:29.950Z,35.50
2018-07-20T10:04:29.944Z,35.74
2018-07-20T10:05:30.687Z,35.82
2018-07-20T10:06:30.002Z,36.01
2018-07-20T10:07:29.982Z,36.16
2018-07-20T10:08:29.979Z,36.35
2018-07-20T10:09:29.993Z,36.68
2018-07-20T10:10:29.990Z,36.81
2018-07-20T10:11:30.310Z,36.94
2018-07-20T10:12:31.736Z,37.25
2018-07-20T10:13:30.010Z,37.28
2018-07-20T10:14:30.018Z,37.46
2018-07-20T10:15:30.046Z,37.50
2018-07-20T10:16:30.034Z,37.63
2018-07-20T10:17:30.054Z,37.63
2018-07-20T10:18:30.048Z,37.64
2018-07-20T10:19:30.046Z,37.76
2018-07-20T10:20:30.057Z,37.69
2018-07-20T10:21:30.113Z,37.66
2018-07-20T10:22:30.093Z,37.63
2018-07-20T10:23:30.089Z,37.69
2018-07-20T10:24:30.097Z,37.76
2018-07-20T10:25:30.146Z,37.96
2018-07-20T10:26:30.119Z,38.04
2018-07-20T10:27:30.166Z,38.13
2018-07-20T10:28:30.122Z,38.22
2018-07-20T10:29:30.127Z,38.44
2018-07-20T10:30:30.145Z,38.40
2018-07-20T10:31:30.144Z,38.56
2018-07-20T10:32:30.154Z,38.59
2018-07-20T10:33:30.199Z,38.57
2018-07-20T10:34:30.174Z,38.68
2018-07-20T10:35:30.208Z,38.72
2018-07-20T10:36:30.190Z,38.90
2018-07-20T10:37:30.227Z,38.91
2018-07-20T10:38:30.204Z,38.93
2018-07-20T10:39:30.224Z,38.86
2018-07-20T10:40:30.221Z,38.60
2018-07-20T10:41:30.234Z,38.65
2018-07-20T10:42:30.241Z,38.60
2018-07-20T10:43:30.307Z,38.61
2018-07-20T10:44:30.256Z,38.66
2018-07-20T10:45:30.266Z,38.71
2018-07-20T10:46:30.283Z,38.93
2018-07-20T10:47:30.278Z,39.01
2018-07-20T10:48:30.302Z,39.04
2018-07-20T10:49:30.311Z,39.03
2018-07-20T10:50:30.317Z,39.06
2018-07-20T10:51:30.318Z,39.23
2018-07-20T10:52:30.328Z,39.21
2018-07-20T10:53:30.324Z,39.21
2018-07-20T10:54:30.353Z,38.95
2018-07-20T10:55:30.344Z,38.83
2018-07-20T10:56:30.347Z,38.56
2018-07-20T10:57:30.377Z,38.30
2018-07-20T10:58:30.386Z,37.98
2018-07-20T10:59:30.459Z,37.76
2018-07-20T11:00:30.400Z,37.63
2018-07-20T11:01:30.464Z,37.47
2018-07-20T11:02:30.404Z,37.46
2018-07-20T11:03:30.400Z,37.56
2018-07-20T11:04:30.425Z,37.64
2018-07-20T11:05:30.475Z,37.63
2018-07-20T11:06:30.453Z,37.70
2018-07-20T11:07:30.436Z,37.63
2018-07-20T11:08:30.461Z,37.62
2018-07-20T11:09:30.476Z,37.51
2018-07-20T11:10:30.473Z,36.98
2018-07-20T11:11:30.495Z,36.62
2018-07-20T11:12:30.476Z,36.47
2018-07-20T11:13:30.487Z,36.41
2018-07-20T11:14:30.481Z,36.28
2018-07-20T11:15:30.493Z,36.31
2018-07-20T11:16:30.529Z,36.16
2018-07-20T11:17:30.542Z,35.97
2018-07-20T11:18:30.525Z,35.82
2018-07-20T11:19:30.515Z,35.62
2018-07-20T11:20:30.515Z,35.50
2018-07-20T11:21:30.553Z,35.55
2018-07-20T11:22:37.288Z,35.82
2018-07-20T11:23:30.537Z,35.93
2018-07-20T11:24:30.538Z,36.08
2018-07-20T11:25:30.547Z,36.31
2018-07-20T11:26:30.572Z,36.41
2018-07-20T11:27:30.766Z,36.69
2018-07-20T11:28:30.568Z,36.85
2018-07-20T11:29:30.586Z,36.99
2018-07-20T11:30:30.628Z,37.17
2018-07-20T11:31:30.600Z,36.98
2018-07-20T11:32:30.590Z,36.78
2018-07-20T11:33:30.609Z,36.85
2018-07-20T11:34:30.609Z,36.85
2018-07-20T11:35:30.619Z,36.87
2018-07-20T11:36:30.640Z,36.87
2018-07-20T11:37:30.634Z,36.91
2018-07-20T11:38:30.851Z,36.94
2018-07-20T11:39:30.643Z,37.03
2018-07-20T11:40:30.646Z,37.12
2018-07-20T11:41:30.707Z,37.13
2018-07-20T11:42:30.660Z,37.22
2018-07-20T11:43:30.720Z,37.43
2018-07-20T11:44:30.678Z,37.51
2018-07-20T11:45:30.680Z,37.66
2018-07-20T11:46:30.681Z,37.82
2018-07-20T11:47:30.722Z,38.00
2018-07-20T11:48:30.703Z,38.11
2018-07-20T11:49:30.724Z,38.15
2018-07-20T11:50:30.716Z,37.96
2018-07-20T11:51:30.758Z,37.59
2018-07-20T11:52:30.754Z,37.50
2018-07-20T11:53:30.741Z,37.46
2018-07-20T11:54:30.756Z,37.34
2018-07-20T11:55:30.814Z,37.25
2018-07-20T11:56:30.771Z,37.13
2018-07-20T11:57:30.770Z,37.24
2018-07-20T11:58:30.781Z,37.39
2018-07-20T11:59:30.783Z,37.47
2018-07-20T12:00:30.800Z,37.59
2018-07-20T12:01:30.821Z,37.47
2018-07-20T12:02:30.814Z,37.31
2018-07-20T12:03:30.814Z,37.03
2018-07-20T12:04:30.817Z,36.87
2018-07-20T12:05:30.874Z,36.57
2018-07-20T12:06:30.842Z,36.32
2018-07-20T12:07:30.869Z,36.23
2018-07-20T12:08:30.857Z,36.16
2018-07-20T12:09:30.857Z,36.01
2018-07-20T12:10:30.863Z,35.96
2018-07-20T12:11:30.878Z,35.77
2018-07-20T12:12:30.912Z,35.33
2018-07-20T12:13:30.880Z,35.07
2018-07-20T12:14:30.887Z,34.84
2018-07-20T12:15:30.893Z,34.84
2018-07-20T12:16:30.902Z,34.53
2018-07-20T12:17:30.947Z,34.10
2018-07-20T12:18:31.002Z,33.82
2018-07-20T12:19:30.922Z,33.66
2018-07-20T12:20:30.916Z,33.65
2018-07-20T12:21:30.939Z,33.56
2018-07-20T12:22:30.934Z,33.39
2018-07-20T12:23:30.926Z,33.29
2018-07-20T12:24:30.965Z,33.15
2018-07-20T12:25:30.938Z,33.03
2018-07-20T12:26:30.940Z,32.89
2018-07-20T12:27:31.026Z,32.89
2018-07-20T12:28:30.938Z,32.78
2018-07-20T12:29:30.952Z,32.74
2018-07-20T12:30:30.964Z,32.67
2018-07-20T12:31:30.955Z,32.56
2018-07-20T12:32:31.846Z,32.48
2018-07-20T12:33:30.954Z,32.44
2018-07-20T12:34:30.986Z,32.33
2018-07-20T12:35:30.962Z,32.32
2018-07-20T12:36:30.992Z,32.32
2018-07-20T12:37:30.965Z,32.23
2018-07-20T12:38:30.992Z,32.15
2018-07-20T12:39:30.965Z,32.11
2018-07-20T12:40:30.970Z,32.18
2018-07-20T12:41:30.974Z,32.00
2018-07-20T12:42:31.016Z,31.72
2018-07-20T12:43:30.981Z,31.58
2018-07-20T12:44:30.975Z,31.65
2018-07-20T12:45:30.980Z,31.58
2018-07-20T12:46:31.017Z,31.70
2018-07-20T12:47:30.980Z,31.72
2018-07-20T12:48:30.992Z,31.61
2018-07-20T12:49:31.065Z,31.58
2018-07-20T12:50:31.033Z,31.48
2018-07-20T12:51:30.995Z,31.43
2018-07-20T12:52:30.995Z,31.36